Time;durP1;ratioP1;P1;durP2;ratioP2;P2;SDS_P1;SDS_P2;PMS_P1;PMS_P2;Temp;Humidity;BMP_temperature;BMP_pressure;BME280_temperature;BME280_humidity;BME280_pressure;Samples;Min_cycle;Max_cycle;Signal;HPM_P1;HPM_P2
2023/03/12 00:00:30;;;;;;;11.97;5.37;;;;;;;-145.18;100.00;47664.53;5025286;28;20050;-72
2023/03/12 00:02:56;;;;;;;13.90;5.63;;;;;;;-145.18;100.00;47654.78;5013636;28;20022;-72
2023/03/12 00:05:21;;;;;;;13.80;5.47;;;;;;;-145.18;100.00;47660.63;5013841;28;20026;-72
2023/03/12 00:07:47;;;;;;;11.17;5.43;;;;;;;-145.18;100.00;47660.63;5013898;28;20049;-72
2023/03/12 00:10:13;;;;;;;14.43;5.00;;;;;;;-145.18;100.00;47672.34;5012142;28;20037;-72
2023/03/12 00:12:40;;;;;;;10.87;5.20;;;;;;;-145.18;100.00;47666.50;5027997;28;20282;-72
2023/03/12 00:15:06;;;;;;;17.27;5.37;;;;;;;-145.18;100.00;47652.81;5032511;28;20345;-72
2023/03/12 00:17:31;;;;;;;9.70;4.77;;;;;;;-145.18;100.00;47662.59;5026135;28;20073;-72
2023/03/12 00:19:57;;;;;;;10.47;4.73;;;;;;;-145.18;100.00;47654.78;5012907;28;20359;-72
2023/03/12 00:22:24;;;;;;;12.17;5.43;;;;;;;-145.18;100.00;47652.81;5012645;28;20478;-72
2023/03/12 00:24:52;;;;;;;12.17;5.23;;;;;;;-145.18;100.00;47670.41;4993014;28;20042;-72
2023/03/12 00:27:18;;;;;;;12.20;5.07;;;;;;;-145.18;100.00;47668.44;4992964;28;20268;-72
2023/03/12 00:29:43;;;;;;;9.90;5.93;;;;;;;-145.18;100.00;47662.59;4993137;28;20358;-72
2023/03/12 00:32:09;;;;;;;8.40;4.87;;;;;;;-145.18;100.00;47658.69;5007342;28;20038;-72
2023/03/12 00:34:34;;;;;;;15.77;5.63;;;;;;;-145.18;100.00;47654.78;5014847;28;20104;-72
2023/03/12 00:36:59;;;;;;;8.33;5.23;;;;;;;-145.18;100.00;47658.69;5028036;28;20033;-72
2023/03/12 00:39:25;;;;;;;11.90;5.43;;;;;;;-145.18;100.00;47654.78;5012001;28;20125;-72
2023/03/12 00:41:50;;;;;;;11.73;5.83;;;;;;;-145.18;100.00;47650.88;5011222;28;20467;-72
2023/03/12 00:44:16;;;;;;;14.40;4.93;;;;;;;-145.18;100.00;47668.44;5011552;28;20569;-72
2023/03/12 00:46:42;;;;;;;8.50;5.17;;;;;;;-145.18;100.00;47652.81;5011177;28;20042;-72
2023/03/12 00:49:07;;;;;;;11.43;5.37;;;;;;;-145.18;100.00;47646.97;5010748;28;20305;-71
2023/03/12 00:51:32;;;;;;;9.63;4.90;;;;;;;-145.18;100.00;47680.16;5010651;28;20102;-72
2023/03/12 00:53:58;;;;;;;10.90;5.17;;;;;;;-145.18;100.00;47664.53;5011154;28;20050;-72
2023/03/12 00:56:23;;;;;;;15.17;5.33;;;;;;;-145.18;100.00;47672.34;5010860;28;20092;-72
2023/03/12 00:58:49;;;;;;;12.20;4.83;;;;;;;-145.18;100.00;47664.53;5010808;28;20049;-72
2023/03/12 01:01:14;;;;;;;9.70;4.70;;;;;;;-145.18;100.00;47660.63;5028368;28;20033;-72
2023/03/12 01:03:39;;;;;;;9.07;4.30;;;;;;;-145.18;100.00;47650.88;5031348;28;20053;-72
2023/03/12 01:06:07;;;;;;;11.53;4.70;;;;;;;-145.18;100.00;47666.50;5030376;28;20052;-72
2023/03/12 01:08:32;;;;;;;8.90;4.70;;;;;;;-145.18;100.00;47660.63;5030367;28;20045;-72
2023/03/12 01:10:58;;;;;;;12.57;4.90;;;;;;;-145.18;100.00;47662.59;5024176;28;20275;-72
2023/03/12 01:13:23;;;;;;;9.07;4.63;;;;;;;-145.18;100.00;47660.63;5010717;28;20045;-72
2023/03/12 01:15:48;;;;;;;8.90;4.50;;;;;;;-145.18;100.00;47648.91;4976929;28;20188;-72
2023/03/12 01:18:14;;;;;;;13.73;4.63;;;;;;;-145.18;100.00;47664.53;5010201;28;20041;-72
2023/03/12 01:20:40;;;;;;;10.47;4.90;;;;;;;-145.18;100.00;47666.50;5010483;28;20495;-72
2023/03/12 01:23:05;;;;;;;12.60;4.77;;;;;;;-145.18;100.00;47652.81;5012613;28;20042;-72
2023/03/12 01:25:32;;;;;;;9.90;4.83;;;;;;;-145.18;100.00;47664.53;5029964;28;20092;-72
2023/03/12 01:27:58;;;;;;;11.70;4.50;;;;;;;-145.18;100.00;47656.72;5030047;28;20045;-72
2023/03/12 01:30:24;;;;;;;8.47;4.47;;;;;;;-145.18;100.00;47654.78;5029894;28;20299;-72
2023/03/12 01:32:51;;;;;;;8.00;4.73;;;;;;;-145.18;100.00;47654.78;5029970;28;20128;-72
2023/03/12 01:35:16;;;;;;;10.90;5.00;;;;;;;-145.18;100.00;47670.41;5029063;28;20154;-72
2023/03/12 01:37:42;;;;;;;15.80;4.07;;;;;;;-145.18;100.00;47707.53;5029906;28;20350;-72
2023/03/12 01:40:12;;;;;;;14.40;5.03;;;;;;;-145.18;100.00;47684.06;5030107;28;20037;-72
2023/03/12 01:42:38;;;;;;;7.70;4.33;;;;;;;-145.18;100.00;47754.41;5012067;28;20522;-72
2023/03/12 01:45:04;;;;;;;10.63;4.90;;;;;;;-145.18;100.00;47717.28;5029845;28;20338;-71
2023/03/12 01:47:30;;;;;;;8.77;4.87;;;;;;;-145.18;100.00;47760.28;5025396;28;20057;-72
2023/03/12 01:49:57;;;;;;;14.47;5.17;;;;;;;-145.18;100.00;47752.47;5010117;28;20294;-71
2023/03/12 01:52:30;;;;;;;14.53;4.90;;;;;;;-145.18;100.00;47764.19;5009534;28;20278;-71
2023/03/12 01:54:56;;;;;;;12.10;5.50;;;;;;;-145.18;100.00;47791.53;5009984;28;20625;-72
2023/03/12 01:57:33;;;;;;;12.20;4.43;;;;;;;-145.18;100.00;47781.78;5019325;28;20389;-72
2023/03/12 02:00:06;;;;;;;15.93;4.87;;;;;;;-145.18;100.00;47826.72;5023617;28;20081;-72
2023/03/12 02:02:32;;;;;;;10.10;4.97;;;;;;;-145.18;100.00;47826.72;5262392;23;20337;-74
2023/03/12 02:05:13;;;;;;;10.53;4.23;;;;;;;-145.18;100.00;47779.81;5023297;28;20322;-74
2023/03/12 02:07:39;;;;;;;8.83;4.00;;;;;;;-145.18;100.00;47809.13;5029134;28;20764;-74
2023/03/12 02:10:05;;;;;;;10.87;4.03;;;;;;;-145.18;100.00;47818.91;5029826;28;20278;-74
2023/03/12 02:12:30;;;;;;;14.63;4.57;;;;;;;-145.18;100.00;47787.63;5033003;28;20048;-74
2023/03/12 02:14:56;;;;;;;8.50;4.33;;;;;;;-145.18;100.00;47762.22;5032849;28;20552;-74
2023/03/12 02:17:21;;;;;;;10.87;4.43;;;;;;;-145.18;100.00;47799.34;5032361;28;20490;-74
2023/03/12 02:20:15;;;;;;;7.80;4.07;;;;;;;-145.18;100.00;47758.31;5032132;28;20042;-74
2023/03/12 02:22:43;;;;;;;8.70;4.67;;;;;;;-145.18;100.00;47766.13;5032747;28;20032;-74
2023/03/12 02:25:34;;;;;;;12.27;4.43;;;;;;;-145.18;100.00;47781.78;5015617;28;20279;-74
2023/03/12 02:28:03;;;;;;;10.87;4.37;;;;;;;-145.18;100.00;47789.59;5013061;28;20267;-74
2023/03/12 02:30:30;;;;;;;9.87;4.23;;;;;;;-145.18;100.00;47772.00;5013146;28;20323;-74
2023/03/12 02:33:00;;;;;;;10.73;4.27;;;;;;;-145.18;100.00;47781.78;5012569;28;20260;-74
2023/03/12 02:35:26;;;;;;;12.97;4.40;;;;;;;-145.18;100.00;47764.19;5012924;28;20264;-74
2023/03/12 02:37:53;;;;;;;9.23;3.93;;;;;;;-145.18;100.00;47746.59;5012479;28;20329;-74
2023/03/12 02:40:28;;;;;;;9.33;4.20;;;;;;;-145.18;100.00;47746.59;5013147;28;20038;-74
2023/03/12 02:42:55;;;;;;;9.93;4.00;;;;;;;-145.18;100.00;47732.94;5012311;28;20288;-74
2023/03/12 02:45:21;;;;;;;8.60;3.40;;;;;;;-145.18;100.00;47723.16;5013061;28;20271;-74
2023/03/12 02:47:46;;;;;;;14.00;4.57;;;;;;;-145.18;100.00;47732.94;5012594;28;20272;-74
2023/03/12 02:50:11;;;;;;;10.73;4.43;;;;;;;-145.18;100.00;47730.97;5017971;28;20113;-74
2023/03/12 02:52:37;;;;;;;11.17;4.20;;;;;;;-145.18;100.00;47730.97;5012370;28;20030;-74
2023/03/12 02:55:04;;;;;;;9.93;4.50;;;;;;;-145.18;100.00;47734.88;5012803;28;20053;-74
2023/03/12 02:57:30;;;;;;;9.27;3.97;;;;;;;-145.18;100.00;47740.75;5029542;28;20112;-74
2023/03/12 02:59:55;;;;;;;8.30;4.00;;;;;;;-145.18;100.00;47719.25;5017705;28;20311;-74
2023/03/12 03:02:21;;;;;;;10.77;4.10;;;;;;;-145.18;100.00;47719.25;5012410;28;20693;-74
2023/03/12 03:04:46;;;;;;;10.60;3.87;;;;;;;-145.18;100.00;47703.63;5012552;28;20048;-74
2023/03/12 03:07:13;;;;;;;9.40;4.03;;;;;;;-145.18;100.00;47678.22;5012061;28;20540;-74
2023/03/12 03:09:39;;;;;;;11.13;4.63;;;;;;;-145.18;100.00;47691.91;5023746;28;20037;-74
2023/03/12 03:12:04;;;;;;;9.40;5.00;;;;;;;-145.18;100.00;47684.06;5032039;28;20267;-74
2023/03/12 03:14:30;;;;;;;7.13;4.43;;;;;;;-145.18;100.00;47687.97;5032284;28;20469;-74
2023/03/12 03:16:55;;;;;;;10.87;4.27;;;;;;;-145.18;100.00;47693.84;5031477;28;20041;-74
2023/03/12 03:19:20;;;;;;;11.03;4.53;;;;;;;-145.18;100.00;47695.81;5022822;28;20038;-74
2023/03/12 03:21:46;;;;;;;8.60;4.23;;;;;;;-145.18;100.00;47701.66;5011582;28;20026;-74
2023/03/12 03:24:12;;;;;;;8.30;4.20;;;;;;;-145.18;100.00;47727.06;5012080;28;20045;-74
2023/03/12 03:26:37;;;;;;;9.97;4.43;;;;;;;-145.18;100.00;47721.19;5011721;28;20283;-74
2023/03/12 03:29:03;;;;;;;12.80;4.20;;;;;;;-145.18;100.00;47732.94;5024781;28;20033;-74
2023/03/12 03:31:28;;;;;;;13.30;4.73;;;;;;;-145.18;100.00;47746.59;5011938;28;20545;-75
2023/03/12 03:33:53;;;;;;;8.80;4.10;;;;;;;-145.18;100.00;47760.28;5011618;28;20044;-75
2023/03/12 03:36:19;;;;;;;13.13;4.60;;;;;;;-145.18;100.00;47736.84;5011808;28;20045;-75
2023/03/12 03:38:48;;;;;;;9.07;4.10;;;;;;;-145.18;100.00;47764.19;5014944;28;20034;-74
2023/03/12 03:41:15;;;;;;;9.63;4.00;;;;;;;-145.18;100.00;47719.25;5031206;28;20375;-74
2023/03/12 03:43:40;;;;;;;9.60;4.10;;;;;;;-145.18;100.00;47699.72;5031080;28;20754;-74
2023/03/12 03:46:06;;;;;;;12.87;4.80;;;;;;;-145.18;100.00;47621.56;5031645;28;20269;-74
2023/03/12 03:48:31;;;;;;;13.30;4.77;;;;;;;-145.18;100.00;47555.13;5009802;28;20030;-74
2023/03/12 03:51:04;;;;;;;10.47;4.40;;;;;;;-145.18;100.00;47418.38;5011390;28;20498;-74
2023/03/12 03:53:30;;;;;;;7.37;4.53;;;;;;;-145.18;100.00;47308.97;5011259;28;20163;-74
2023/03/12 03:55:56;;;;;;;13.63;4.40;;;;;;;-145.18;100.00;47271.84;5011364;28;20299;-74
2023/03/12 03:58:21;;;;;;;15.23;4.50;;;;;;;-145.18;100.00;47219.09;5012430;28;20302;-74
2023/03/12 04:00:47;;;;;;;10.67;4.50;;;;;;;-145.18;100.00;47150.72;5030837;28;20114;-74
2023/03/12 04:03:12;;;;;;;9.60;4.37;;;;;;;-145.18;100.00;47080.38;5016651;28;20152;-74
2023/03/12 04:05:39;;;;;;;11.90;4.37;;;;;;;-145.18;100.00;47078.44;5011265;28;20106;-73
2023/03/12 04:08:05;;;;;;;13.10;5.17;;;;;;;-145.18;100.00;47043.28;5011201;28;20025;-73
2023/03/12 04:10:31;;;;;;;14.37;4.50;;;;;;;-145.18;100.00;47035.44;4991952;28;20298;-74
2023/03/12 04:12:56;;;;;;;12.53;4.30;;;;;;;-145.18;100.00;46988.56;4991314;28;20642;-74
2023/03/12 04:15:22;;;;;;;12.97;5.13;;;;;;;-145.18;100.00;46994.44;4991480;28;20122;-73
2023/03/12 04:17:47;;;;;;;10.17;4.80;;;;;;;-145.18;100.00;46990.53;5000954;28;20176;-73
2023/03/12 04:20:12;;;;;;;11.87;5.03;;;;;;;-145.18;100.00;46976.84;4994918;28;20035;-73
2023/03/12 04:22:38;;;;;;;11.37;5.20;;;;;;;-145.18;100.00;46982.72;4990712;28;20063;-74
2023/03/12 04:25:06;;;;;;;12.23;4.27;;;;;;;-145.18;100.00;46972.94;4991617;28;20032;-74
2023/03/12 04:27:31;;;;;;;9.27;4.50;;;;;;;-145.18;100.00;46963.19;4991003;28;20041;-74
2023/03/12 04:29:57;;;;;;;14.07;5.13;;;;;;;-145.18;100.00;46967.09;5004351;28;20330;-74
2023/03/12 04:32:22;;;;;;;9.60;4.63;;;;;;;-145.18;100.00;46957.31;5010247;28;20069;-74
2023/03/12 04:34:47;;;;;;;10.70;5.00;;;;;;;-145.18;100.00;46929.97;5010242;28;20061;-74
2023/03/12 04:37:13;;;;;;;10.47;4.70;;;;;;;-145.18;100.00;46939.72;5010315;28;20060;-74
2023/03/12 04:39:39;;;;;;;16.10;4.93;;;;;;;-145.18;100.00;46933.88;4982166;28;20611;-74
2023/03/12 04:42:05;;;;;;;12.77;4.77;;;;;;;-145.18;100.00;46949.50;4991043;28;20034;-74
2023/03/12 04:44:31;;;;;;;16.27;5.27;;;;;;;-145.18;100.00;46898.72;4990866;28;20290;-74
2023/03/12 04:46:56;;;;;;;14.97;5.07;;;;;;;-145.18;100.00;46890.91;4991040;28;20276;-73
2023/03/12 04:49:21;;;;;;;11.87;4.77;;;;;;;-145.18;100.00;46898.72;4998373;28;20125;-74
2023/03/12 04:51:47;;;;;;;12.37;5.27;;;;;;;-145.18;100.00;46877.22;5010636;28;20038;-74
2023/03/12 04:54:12;;;;;;;8.37;4.77;;;;;;;-145.18;100.00;46814.72;5010485;28;20034;-74
2023/03/12 04:56:38;;;;;;;11.60;5.50;;;;;;;-145.18;100.00;46785.41;5010405;28;20041;-74
2023/03/12 04:59:04;;;;;;;11.93;5.60;;;;;;;-145.18;100.00;46765.88;4987169;28;20394;-74
2023/03/12 05:01:32;;;;;;;12.27;5.40;;;;;;;-145.18;100.00;46728.75;4990991;28;20483;-73
2023/03/12 05:03:58;;;;;;;16.90;5.60;;;;;;;-145.18;100.00;46709.22;5029742;28;20277;-74
2023/03/12 05:06:24;;;;;;;12.17;5.83;;;;;;;-145.18;100.00;46699.47;5028617;28;20624;-74
2023/03/12 05:08:49;;;;;;;12.63;5.73;;;;;;;-145.18;100.00;46685.78;5029489;28;20037;-74
2023/03/12 05:11:16;;;;;;;13.63;6.47;;;;;;;-145.18;100.00;46670.16;5030167;28;20535;-74
2023/03/12 05:13:42;;;;;;;10.33;5.80;;;;;;;-145.18;100.00;46664.31;5029611;28;20037;-73
2023/03/12 05:16:08;;;;;;;21.70;6.30;;;;;;;-145.18;100.00;46652.59;5030171;28;20285;-74
2023/03/12 05:18:34;;;;;;;14.20;6.17;;;;;;;-145.18;100.00;46644.78;5029259;28;20034;-73
2023/03/12 05:21:06;;;;;;;15.00;6.73;;;;;;;-145.18;100.00;46638.91;5029932;28;20278;-73
2023/03/12 05:23:33;;;;;;;12.40;5.90;;;;;;;-145.18;100.00;46629.13;5029749;28;20100;-74
2023/03/12 05:25:58;;;;;;;16.37;6.73;;;;;;;-145.18;100.00;46660.41;5029789;28;20679;-74
2023/03/12 05:28:27;;;;;;;16.03;6.23;;;;;;;-145.18;100.00;46656.50;5029439;28;20294;-73
2023/03/12 05:30:57;;;;;;;18.53;6.93;;;;;;;-145.18;100.00;46652.59;5029334;28;20517;-73
2023/03/12 05:33:23;;;;;;;15.13;6.40;;;;;;;-145.18;100.00;46640.88;5029649;28;20806;-73
2023/03/12 05:35:49;;;;;;;11.60;6.67;;;;;;;-145.18;100.00;46635.00;5028657;28;20405;-74
2023/03/12 05:38:14;;;;;;;13.73;6.43;;;;;;;-145.18;100.00;46640.88;5025854;28;20277;-74
2023/03/12 05:40:40;;;;;;;21.90;7.23;;;;;;;-145.18;100.00;46636.94;5007719;28;20037;-73
2023/03/12 05:43:05;;;;;;;11.70;6.70;;;;;;;-145.18;100.00;46636.94;5021336;28;20029;-73
2023/03/12 05:45:31;;;;;;;10.30;7.07;;;;;;;-145.18;100.00;46635.00;5004846;28;20449;-73
2023/03/12 05:47:57;;;;;;;20.13;7.53;;;;;;;-145.18;100.00;46638.91;5021771;28;20057;-73
2023/03/12 05:50:22;;;;;;;16.10;7.53;;;;;;;-145.18;100.00;46652.59;5025412;28;20678;-73
2023/03/12 05:52:48;;;;;;;15.60;6.13;;;;;;;-145.18;100.00;46660.41;5032328;28;20029;-73
2023/03/12 05:55:13;;;;;;;19.13;6.97;;;;;;;-145.18;100.00;46660.41;5028736;28;20114;-74
2023/03/12 05:57:38;;;;;;;16.13;7.33;;;;;;;-145.18;100.00;46679.94;5032688;28;20037;-73
2023/03/12 06:00:05;;;;;;;15.23;7.67;;;;;;;-145.18;100.00;46654.53;5033218;28;20474;-74
2023/03/12 06:02:30;;;;;;;18.07;7.27;;;;;;;-145.18;100.00;46666.25;5024587;28;20486;-73
2023/03/12 06:04:57;;;;;;;13.00;7.30;;;;;;;-145.18;100.00;46677.97;5013394;28;20310;-73
2023/03/12 06:07:23;;;;;;;19.77;7.77;;;;;;;-145.18;100.00;46681.88;5012897;28;20038;-73
2023/03/12 06:09:48;;;;;;;13.30;7.17;;;;;;;-145.18;100.00;46697.50;5012959;28;20307;-73
2023/03/12 06:12:13;;;;;;;15.43;7.30;;;;;;;-145.18;100.00;46699.47;4995695;28;20034;-73
2023/03/12 06:14:39;;;;;;;13.80;7.80;;;;;;;-145.18;100.00;46707.28;5012982;28;20026;-74
2023/03/12 06:17:04;;;;;;;18.00;8.10;;;;;;;-145.18;100.00;46713.13;5013046;28;20034;-74
2023/03/12 06:19:29;;;;;;;19.73;8.07;;;;;;;-145.18;100.00;46717.03;5012585;28;20580;-74
2023/03/12 06:21:55;;;;;;;16.23;8.20;;;;;;;-145.18;100.00;46719.00;5011748;28;20025;-73
2023/03/12 06:24:20;;;;;;;17.00;8.43;;;;;;;-145.18;100.00;46720.94;5013098;28;20059;-74
2023/03/12 06:26:46;;;;;;;17.33;8.43;;;;;;;-145.18;100.00;46720.94;5012908;28;20398;-74
2023/03/12 06:29:11;;;;;;;17.17;8.47;;;;;;;-145.18;100.00;46720.94;4994658;28;20042;-73
2023/03/12 06:31:38;;;;;;;15.40;7.97;;;;;;;-145.18;100.00;46722.91;5012869;28;20046;-73
2023/03/12 06:34:04;;;;;;;17.10;8.43;;;;;;;-145.18;100.00;46719.00;5012557;28;20072;-73
2023/03/12 06:36:29;;;;;;;16.73;7.93;;;;;;;-145.18;100.00;46717.03;5012978;28;20306;-73
2023/03/12 06:38:54;;;;;;;18.23;9.53;;;;;;;-145.18;100.00;46713.13;4994709;28;20036;-74
2023/03/12 06:41:20;;;;;;;20.33;8.70;;;;;;;-145.18;100.00;46717.03;5012870;28;20448;-73
2023/03/12 06:43:46;;;;;;;17.57;9.23;;;;;;;-145.18;100.00;46715.09;5012399;28;20061;-73
2023/03/12 06:46:15;;;;;;;19.20;9.00;;;;;;;-145.18;100.00;46715.09;4995108;28;20046;-73
2023/03/12 06:48:41;;;;;;;17.63;9.80;;;;;;;-145.18;100.00;46715.09;5011784;28;20037;-73
2023/03/12 06:51:08;;;;;;;21.10;9.40;;;;;;;-145.18;100.00;46715.09;5012746;28;20276;-73
2023/03/12 06:53:33;;;;;;;17.23;9.67;;;;;;;-145.18;100.00;46719.00;5012475;28;20485;-73
2023/03/12 06:55:59;;;;;;;20.10;9.90;;;;;;;-145.18;100.00;46713.13;5011433;28;20264;-74
2023/03/12 06:58:24;;;;;;;18.93;9.53;;;;;;;-145.18;100.00;46715.09;5011189;28;20045;-74
2023/03/12 07:00:51;;;;;;;19.43;10.80;;;;;;;-145.18;100.00;46715.09;5011535;28;20029;-74
2023/03/12 07:03:16;;;;;;;23.60;11.00;;;;;;;-145.18;100.00;46713.13;5025739;28;20055;-73
2023/03/12 07:05:46;;;;;;;17.50;10.10;;;;;;;-145.18;100.00;46709.22;5031621;28;20466;-73
2023/03/12 07:08:12;;;;;;;19.92;10.32;;;;;;;-145.18;100.00;46709.22;5031133;28;20116;-73
2023/03/12 07:10:38;;;;;;;21.10;11.57;;;;;;;-145.18;100.00;46711.19;5031685;28;20454;-73
2023/03/12 07:13:04;;;;;;;20.87;10.30;;;;;;;-145.18;100.00;46715.09;5031319;28;20458;-74
2023/03/12 07:15:29;;;;;;;21.23;9.87;;;;;;;-145.18;100.00;46709.22;5031765;28;20366;-73
2023/03/12 07:17:54;;;;;;;18.20;10.47;;;;;;;-145.18;100.00;46713.13;5031063;28;20081;-73
2023/03/12 07:20:20;;;;;;;16.93;10.57;;;;;;;-145.18;100.00;46711.19;5013267;28;20100;-73
2023/03/12 07:22:45;;;;;;;17.87;10.20;;;;;;;-145.18;100.00;46711.19;5031431;28;20065;-73
2023/03/12 07:25:11;;;;;;;22.70;9.93;;;;;;;-145.18;100.00;46713.13;5013990;28;20040;-73
2023/03/12 07:27:36;;;;;;;17.40;10.50;;;;;;;-145.18;100.00;46707.28;5031300;28;20100;-73
2023/03/12 07:30:02;;;;;;;25.13;10.47;;;;;;;-145.18;100.00;46709.22;5031437;28;20037;-73
2023/03/12 07:32:28;;;;;;;14.83;10.33;;;;;;;-145.18;100.00;46711.19;5031478;28;20394;-73
2023/03/12 07:34:53;;;;;;;19.87;10.73;;;;;;;-145.18;100.00;46707.28;5013549;28;20271;-73
2023/03/12 07:37:19;;;;;;;22.63;10.13;;;;;;;-145.18;100.00;46711.19;5027199;28;20120;-73
2023/03/12 07:39:44;;;;;;;17.90;11.57;;;;;;;-145.18;100.00;46709.22;5024927;28;20030;-73
2023/03/12 07:42:11;;;;;;;23.43;11.07;;;;;;;-145.18;100.00;46709.22;5014063;28;20121;-73
2023/03/12 07:44:37;;;;;;;21.63;10.73;;;;;;;-145.18;100.00;46709.22;5009852;28;20038;-73
2023/03/12 07:47:02;;;;;;;24.43;11.83;;;;;;;-145.18;100.00;46711.19;5010001;28;20263;-73
2023/03/12 07:49:28;;;;;;;23.67;12.27;;;;;;;-145.18;100.00;46705.31;5010727;28;20482;-73
2023/03/12 07:51:53;;;;;;;21.67;12.03;;;;;;;-145.18;100.00;46711.19;5004674;28;20147;-73
2023/03/12 07:54:19;;;;;;;19.40;11.27;;;;;;;-145.18;100.00;46709.22;5030046;28;20040;-73
2023/03/12 07:56:44;;;;;;;22.30;11.80;;;;;;;-145.18;100.00;46711.19;5029804;28;20490;-74
2023/03/12 07:59:10;;;;;;;27.23;12.47;;;;;;;-145.18;100.00;46709.22;5019330;28;20568;-74
2023/03/12 08:01:35;;;;;;;24.53;12.87;;;;;;;-145.18;100.00;46709.22;5030698;28;20025;-74
2023/03/12 08:04:01;;;;;;;25.80;12.73;;;;;;;-145.18;100.00;46707.28;5006969;28;20050;-74
2023/03/12 08:06:27;;;;;;;24.80;13.10;;;;;;;-145.18;100.00;46709.22;4957462;28;20050;-74
2023/03/12 08:08:53;;;;;;;20.43;12.73;;;;;;;-145.18;100.00;46709.22;4975795;28;20045;-74
2023/03/12 08:11:18;;;;;;;24.03;12.07;;;;;;;-145.18;100.00;46705.31;5011123;28;20283;-74
2023/03/12 08:13:44;;;;;;;25.07;13.97;;;;;;;-145.18;100.00;46709.22;5010915;28;20194;-74
2023/03/12 08:16:09;;;;;;;25.13;13.40;;;;;;;-145.18;100.00;46713.13;5010745;28;20100;-74
2023/03/12 08:18:35;;;;;;;25.43;13.80;;;;;;;-145.18;100.00;46709.22;5010593;28;20042;-74
2023/03/12 08:21:00;;;;;;;27.70;14.40;;;;;;;-145.18;100.00;46705.31;5010888;28;20045;-74
2023/03/12 08:23:25;;;;;;;30.37;15.40;;;;;;;-145.18;100.00;46701.41;5010446;28;20061;-74
2023/03/12 08:25:52;;;;;;;26.00;14.73;;;;;;;-145.18;100.00;46705.31;4997938;28;20399;-74
2023/03/12 08:28:18;;;;;;;26.37;13.97;;;;;;;-145.18;100.00;46705.31;5010027;28;20073;-74
2023/03/12 08:30:48;;;;;;;35.87;16.27;;;;;;;-145.18;100.00;46707.28;5010295;28;20303;-75
2023/03/12 08:33:14;;;;;;;36.97;17.37;;;;;;;-145.18;100.00;46699.47;5006249;28;21126;-74
2023/03/12 08:35:40;;;;;;;35.00;18.20;;;;;;;-145.18;100.00;46701.41;5002619;28;20276;-74
2023/03/12 08:38:05;;;;;;;36.07;19.67;;;;;;;-145.18;100.00;46695.56;5010107;28;20102;-74
2023/03/12 08:40:30;;;;;;;42.10;20.73;;;;;;;-145.18;100.00;46697.50;5000452;28;20034;-74
2023/03/12 08:42:56;;;;;;;43.27;22.40;;;;;;;-145.18;100.00;46691.66;5009836;28;20112;-75
2023/03/12 08:45:21;;;;;;;44.43;24.40;;;;;;;-145.18;100.00;46695.56;4998633;28;20558;-75
2023/03/12 08:47:46;;;;;;;46.20;23.73;;;;;;;-145.18;100.00;46697.50;4990772;28;20027;-74
2023/03/12 08:50:14;;;;;;;49.53;23.50;;;;;;;-145.18;100.00;46689.69;4984859;28;20132;-74
2023/03/12 08:52:39;;;;;;;49.27;24.47;;;;;;;-145.18;100.00;46691.66;4990936;28;20043;-74
2023/03/12 08:55:05;;;;;;;49.20;24.90;;;;;;;-145.18;100.00;46689.69;5000035;28;20331;-74
2023/03/12 08:57:31;;;;;;;51.17;25.83;;;;;;;-145.18;100.00;46689.69;4989513;28;20019;-74
2023/03/12 08:59:56;;;;;;;48.07;25.93;;;;;;;-145.18;100.00;46685.78;5008023;28;20410;-74
2023/03/12 09:02:22;;;;;;;52.00;24.80;;;;;;;-145.18;100.00;46685.78;5009728;28;20022;-74
2023/03/12 09:04:48;;;;;;;54.00;27.87;;;;;;;-145.18;100.00;46683.84;5028517;28;20052;-74
2023/03/12 09:07:17;;;;;;;56.07;27.13;;;;;;;-145.18;100.00;46681.88;5030196;28;20057;-74
2023/03/12 09:09:43;;;;;;;54.20;27.73;;;;;;;-145.18;100.00;46679.94;5029165;28;20291;-75
2023/03/12 09:12:08;;;;;;;56.60;29.43;;;;;;;-145.18;100.00;46677.97;5029658;28;20275;-74
2023/03/12 09:14:34;;;;;;;53.53;28.63;;;;;;;-145.18;100.00;46677.97;5029170;28;20282;-74
2023/03/12 09:17:00;;;;;;;57.47;28.30;;;;;;;-145.18;100.00;46679.94;5027680;28;20037;-75
2023/03/12 09:19:26;;;;;;;59.37;27.90;;;;;;;-145.18;100.00;46676.03;4995145;28;20037;-74
2023/03/12 09:21:52;;;;;;;57.40;29.20;;;;;;;-145.18;100.00;46676.03;5028948;28;20695;-74
2023/03/12 09:24:17;;;;;;;52.87;28.23;;;;;;;-145.18;100.00;46679.94;5016197;28;20033;-74
2023/03/12 09:26:42;;;;;;;57.43;29.10;;;;;;;-145.18;100.00;46679.94;5015799;28;20113;-74
2023/03/12 09:29:08;;;;;;;51.47;27.93;;;;;;;-145.18;100.00;46674.06;4997099;28;20050;-74
2023/03/12 09:31:35;;;;;;;55.77;28.70;;;;;;;-145.18;100.00;46676.03;5019732;28;20112;-74
2023/03/12 09:34:00;;;;;;;53.93;29.07;;;;;;;-145.18;100.00;46679.94;5029246;28;20047;-74
2023/03/12 09:36:26;;;;;;;59.60;27.80;;;;;;;-145.18;100.00;46674.06;5008603;28;20290;-73
2023/03/12 09:38:51;;;;;;;52.37;27.23;;;;;;;-145.18;100.00;46677.97;5032811;28;20470;-74
2023/03/12 09:41:20;;;;;;;53.63;27.83;;;;;;;-145.18;100.00;46679.94;5032193;28;20037;-74
2023/03/12 09:44:01;;;;;;;48.73;24.40;;;;;;;-145.18;100.00;46677.97;5013457;28;20061;-74
2023/03/12 09:46:56;;;;;;;46.97;20.90;;;;;;;-145.18;100.00;46679.94;5013528;28;20286;-74
2023/03/12 09:49:35;;;;;;;33.23;16.43;;;;;;;-145.18;100.00;46676.03;5013590;28;20291;-73
2023/03/12 09:52:05;;;;;;;45.83;16.70;;;;;;;-145.18;100.00;46679.94;5013586;28;20275;-73
2023/03/12 09:54:39;;;;;;;41.00;15.47;;;;;;;-145.18;100.00;46677.97;5006406;28;20706;-73
2023/03/12 09:57:11;;;;;;;33.10;13.93;;;;;;;-145.18;100.00;46676.03;5025669;28;20264;-73
2023/03/12 09:59:37;;;;;;;43.10;16.03;;;;;;;-145.18;100.00;46677.97;5014215;28;20310;-74
2023/03/12 10:02:20;;;;;;;34.50;14.47;;;;;;;-145.18;100.00;46674.06;5029024;28;20271;-73
2023/03/12 10:05:03;;;;;;;40.57;13.37;;;;;;;-145.18;100.00;46677.97;5032684;28;20111;-74
2023/03/12 10:07:40;;;;;;;45.50;13.63;;;;;;;-145.18;100.00;46672.13;5029646;28;20316;-73
2023/03/12 10:10:21;;;;;;;38.13;10.83;;;;;;;-145.18;100.00;46676.03;5031615;28;20306;-73
2023/03/12 10:13:11;;;;;;;36.77;11.87;;;;;;;-145.18;100.00;46679.94;5027100;28;20278;-74
2023/03/12 10:16:00;;;;;;;41.77;11.80;;;;;;;-145.18;100.00;46681.88;5025753;28;20604;-73
2023/03/12 10:18:53;;;;;;;36.10;10.80;;;;;;;-145.18;100.00;46683.84;5033144;28;20267;-74
2023/03/12 10:21:21;;;;;;;47.70;9.60;;;;;;;-145.18;100.00;46677.97;5027838;28;20294;-74
2023/03/12 10:23:53;;;;;;;48.47;9.57;;;;;;;-145.18;100.00;46677.97;5014625;28;20291;-74
2023/03/12 10:26:30;;;;;;;44.03;9.10;;;;;;;-145.18;100.00;46677.97;5029142;28;20272;-74
2023/03/12 10:29:11;;;;;;;42.77;8.70;;;;;;;-145.18;100.00;46679.94;5006708;28;20295;-74
2023/03/12 10:31:47;;;;;;;41.67;8.40;;;;;;;-145.18;100.00;46687.75;5012203;28;20278;-73
2023/03/12 10:34:42;;;;;;;41.87;7.63;;;;;;;-145.18;100.00;46679.94;5030683;28;21043;-73
2023/03/12 10:37:46;;;;;;;57.30;10.00;;;;;;;-145.18;100.00;46689.69;5028984;28;20608;-73
2023/03/12 10:40:21;;;;;;;37.13;6.57;;;;;;;-145.18;100.00;46683.84;5032640;28;20270;-73
2023/03/12 10:42:46;;;;;;;39.50;8.17;;;;;;;-145.18;100.00;46681.88;5015371;28;20357;-73
2023/03/12 10:45:36;;;;;;;35.57;7.33;;;;;;;-145.18;100.00;46683.84;5032014;28;20306;-73
2023/03/12 10:48:07;;;;;;;48.73;7.90;;;;;;;-145.18;100.00;46685.78;5031172;28;20108;-74
2023/03/12 10:50:35;;;;;;;38.23;7.13;;;;;;;-145.18;100.00;46683.84;5032336;28;20290;-73
2023/03/12 10:53:25;;;;;;;51.53;7.83;;;;;;;-145.18;100.00;46685.78;5020631;28;21179;-73
2023/03/12 10:56:04;;;;;;;62.67;8.87;;;;;;;-145.18;100.00;46685.78;5031980;28;20353;-74
2023/03/12 10:58:35;;;;;;;48.63;7.10;;;;;;;-145.18;100.00;46687.75;5020601;28;20278;-73
2023/03/12 11:01:04;;;;;;;51.83;7.43;;;;;;;-145.18;100.00;46681.88;5012269;28;20330;-73